sensor_id;sensor_type;location;lat;lon;timestamp;temperature;humidity
9658;DHT22;4867;48.112;11.622;2023-03-24T00:00:26;12.30;99.90
9658;DHT22;4867;48.112;11.622;2023-03-24T00:02:54;12.30;99.90
9658;DHT22;4867;48.112;11.622;2023-03-24T00:05:22;12.40;99.90
9658;DHT22;4867;48.112;11.622;2023-03-24T00:07:50;12.40;99.90
9658;DHT22;4867;48.112;11.622;2023-03-24T00:10:21;12.40;99.90
9658;DHT22;4867;48.112;11.622;2023-03-24T00:12:49;12.30;99.90
9658;DHT22;4867;48.112;11.622;2023-03-24T00:15:19;12.30;99.90
9658;DHT22;4867;48.112;11.622;2023-03-24T00:17:48;12.30;99.90
9658;DHT22;4867;48.112;11.622;2023-03-24T00:20:20;12.30;99.90
9658;DHT22;4867;48.112;11.622;2023-03-24T00:22:50;12.30;99.90
9658;DHT22;4867;48.112;11.622;2023-03-24T00:25:25;12.20;99.90
9658;DHT22;4867;48.112;11.622;2023-03-24T00:27:56;12.20;99.90
9658;DHT22;4867;48.112;11.622;2023-03-24T00:30:24;12.20;99.90
9658;DHT22;4867;48.112;11.622;2023-03-24T00:32:52;12.20;99.90
9658;DHT22;4867;48.112;11.622;2023-03-24T00:35:20;12.10;99.90
9658;DHT22;4867;48.112;11.622;2023-03-24T00:37:48;12.10;99.90
9658;DHT22;4867;48.112;11.622;2023-03-24T00:40:19;12.10;99.90
9658;DHT22;4867;48.112;11.622;2023-03-24T00:42:48;12.10;99.90
9658;DHT22;4867;48.112;11.622;2023-03-24T00:45:20;12.00;99.90
9658;DHT22;4867;48.112;11.622;2023-03-24T00:47:49;12.00;99.90
9658;DHT22;4867;48.112;11.622;2023-03-24T00:50:21;12.00;99.90
9658;DHT22;4867;48.112;11.622;2023-03-24T00:52:54;12.00;99.90
9658;DHT22;4867;48.112;11.622;2023-03-24T00:55:21;12.00;99.90
9658;DHT22;4867;48.112;11.622;2023-03-24T00:57:49;12.00;99.90
9658;DHT22;4867;48.112;11.622;2023-03-24T01:00:21;12.00;99.90
9658;DHT22;4867;48.112;11.622;2023-03-24T01:02:54;12.00;99.90
9658;DHT22;4867;48.112;11.622;2023-03-24T01:05:29;12.00;99.90
9658;DHT22;4867;48.112;11.622;2023-03-24T01:07:58;12.00;99.90
9658;DHT22;4867;48.112;11.622;2023-03-24T01:10:32;11.90;99.90
9658;DHT22;4867;48.112;11.622;2023-03-24T01:13:01;11.90;99.90
9658;DHT22;4867;48.112;11.622;2023-03-24T01:15:31;11.90;99.90
9658;DHT22;4867;48.112;11.622;2023-03-24T01:18:00;11.80;99.90
9658;DHT22;4867;48.112;11.622;2023-03-24T01:20:31;11.70;99.90
9658;DHT22;4867;48.112;11.622;2023-03-24T01:23:00;11.70;99.90
9658;DHT22;4867;48.112;11.622;2023-03-24T01:25:28;11.70;99.90
9658;DHT22;4867;48.112;11.622;2023-03-24T01:27:56;11.60;99.90
9658;DHT22;4867;48.112;11.622;2023-03-24T01:30:26;11.70;99.90
9658;DHT22;4867;48.112;11.622;2023-03-24T01:32:54;11.70;99.90
9658;DHT22;4867;48.112;11.622;2023-03-24T01:35:23;11.70;99.90
9658;DHT22;4867;48.112;11.622;2023-03-24T01:37:56;11.70;99.90
9658;DHT22;4867;48.112;11.622;2023-03-24T01:40:29;11.70;99.90
9658;DHT22;4867;48.112;11.622;2023-03-24T01:42:58;11.70;99.90
9658;DHT22;4867;48.112;11.622;2023-03-24T01:51:14;11.70;99.90
9658;DHT22;4867;48.112;11.622;2023-03-24T01:53:49;11.70;99.90
9658;DHT22;4867;48.112;11.622;2023-03-24T01:56:18;11.70;99.90
9658;DHT22;4867;48.112;11.622;2023-03-24T01:58:52;11.70;99.90
9658;DHT22;4867;48.112;11.622;2023-03-24T02:01:34;11.80;99.90
9658;DHT22;4867;48.112;11.622;2023-03-24T02:04:14;11.80;99.90
9658;DHT22;4867;48.112;11.622;2023-03-24T02:06:44;11.80;99.90
9658;DHT22;4867;48.112;11.622;2023-03-24T02:09:13;11.90;99.90
9658;DHT22;4867;48.112;11.622;2023-03-24T02:11:41;11.80;99.90
9658;DHT22;4867;48.112;11.622;2023-03-24T02:14:10;11.80;99.90
9658;DHT22;4867;48.112;11.622;2023-03-24T02:19:59;11.70;99.90
9658;DHT22;4867;48.112;11.622;2023-03-24T02:30:52;11.70;99.90
9658;DHT22;4867;48.112;11.622;2023-03-24T02:42:34;11.80;99.90
9658;DHT22;4867;48.112;11.622;2023-03-24T02:48:20;11.70;99.90
9658;DHT22;4867;48.112;11.622;2023-03-24T02:51:10;11.80;99.90
9658;DHT22;4867;48.112;11.622;2023-03-24T02:56:53;11.80;99.90
9658;DHT22;4867;48.112;11.622;2023-03-24T02:59:39;11.80;99.90
9658;DHT22;4867;48.112;11.622;2023-03-24T03:02:31;11.70;99.90
9658;DHT22;4867;48.112;11.622;2023-03-24T03:05:05;11.70;99.90
9658;DHT22;4867;48.112;11.622;2023-03-24T03:07:36;11.70;99.90
9658;DHT22;4867;48.112;11.622;2023-03-24T03:10:24;11.70;99.90
9658;DHT22;4867;48.112;11.622;2023-03-24T03:12:56;11.60;99.90
9658;DHT22;4867;48.112;11.622;2023-03-24T03:15:28;11.60;99.90
9658;DHT22;4867;48.112;11.622;2023-03-24T03:18:10;11.60;99.90
9658;DHT22;4867;48.112;11.622;2023-03-24T03:20:44;11.60;99.90
9658;DHT22;4867;48.112;11.622;2023-03-24T03:23:24;11.70;99.90
9658;DHT22;4867;48.112;11.622;2023-03-24T03:25:57;11.60;99.90
9658;DHT22;4867;48.112;11.622;2023-03-24T03:28:35;11.60;99.90
9658;DHT22;4867;48.112;11.622;2023-03-24T03:31:08;11.70;99.90
9658;DHT22;4867;48.112;11.622;2023-03-24T03:33:45;11.70;99.90
9658;DHT22;4867;48.112;11.622;2023-03-24T03:36:27;11.70;99.90
9658;DHT22;4867;48.112;11.622;2023-03-24T03:39:02;11.80;99.90
9658;DHT22;4867;48.112;11.622;2023-03-24T03:41:33;11.80;99.90
9658;DHT22;4867;48.112;11.622;2023-03-24T03:44:00;11.80;99.90
9658;DHT22;4867;48.112;11.622;2023-03-24T03:46:28;11.80;99.90
9658;DHT22;4867;48.112;11.622;2023-03-24T03:48:57;11.80;99.90
9658;DHT22;4867;48.112;11.622;2023-03-24T03:51:24;11.80;99.90
9658;DHT22;4867;48.112;11.622;2023-03-24T03:54:07;11.80;99.90
9658;DHT22;4867;48.112;11.622;2023-03-24T03:56:38;11.80;99.90
9658;DHT22;4867;48.112;11.622;2023-03-24T03:59:24;11.70;99.90
9658;DHT22;4867;48.112;11.622;2023-03-24T04:01:54;11.70;99.90
9658;DHT22;4867;48.112;11.622;2023-03-24T04:11:11;11.60;99.90
9658;DHT22;4867;48.112;11.622;2023-03-24T04:14:10;11.70;99.90
9658;DHT22;4867;48.112;11.622;2023-03-24T04:17:33;11.70;99.90
9658;DHT22;4867;48.112;11.622;2023-03-24T04:20:20;11.70;99.90
9658;DHT22;4867;48.112;11.622;2023-03-24T04:23:09;11.70;99.90
9658;DHT22;4867;48.112;11.622;2023-03-24T04:30:47;11.70;99.90
9658;DHT22;4867;48.112;11.622;2023-03-24T04:39:20;11.70;99.90
9658;DHT22;4867;48.112;11.622;2023-03-24T04:41:57;11.70;99.90
9658;DHT22;4867;48.112;11.622;2023-03-24T04:44:28;11.70;99.90
9658;DHT22;4867;48.112;11.622;2023-03-24T04:47:25;11.70;99.90
9658;DHT22;4867;48.112;11.622;2023-03-24T04:50:07;11.70;99.90
9658;DHT22;4867;48.112;11.622;2023-03-24T04:52:38;11.70;99.90
9658;DHT22;4867;48.112;11.622;2023-03-24T04:58:02;11.70;99.90
9658;DHT22;4867;48.112;11.622;2023-03-24T05:00:30;11.70;99.90
9658;DHT22;4867;48.112;11.622;2023-03-24T05:02:58;11.70;99.90
9658;DHT22;4867;48.112;11.622;2023-03-24T05:05:26;11.60;99.90
9658;DHT22;4867;48.112;11.622;2023-03-24T05:07:54;11.70;99.90
9658;DHT22;4867;48.112;11.622;2023-03-24T05:10:23;11.70;99.90
9658;DHT22;4867;48.112;11.622;2023-03-24T05:12:54;11.80;99.90
9658;DHT22;4867;48.112;11.622;2023-03-24T05:15:40;11.70;99.90
9658;DHT22;4867;48.112;11.622;2023-03-24T05:18:24;11.70;99.90
9658;DHT22;4867;48.112;11.622;2023-03-24T05:20:51;11.70;99.90
9658;DHT22;4867;48.112;11.622;2023-03-24T05:23:21;11.70;99.90
9658;DHT22;4867;48.112;11.622;2023-03-24T05:25:49;11.70;99.90
9658;DHT22;4867;48.112;11.622;2023-03-24T05:28:19;11.70;99.90
9658;DHT22;4867;48.112;11.622;2023-03-24T05:30:46;11.60;99.90
9658;DHT22;4867;48.112;11.622;2023-03-24T05:33:40;11.60;99.90
9658;DHT22;4867;48.112;11.622;2023-03-24T05:36:13;11.60;99.90
9658;DHT22;4867;48.112;11.622;2023-03-24T05:38:44;11.60;99.90
9658;DHT22;4867;48.112;11.622;2023-03-24T05:41:12;11.50;99.90
9658;DHT22;4867;48.112;11.622;2023-03-24T05:43:41;11.50;99.90
9658;DHT22;4867;48.112;11.622;2023-03-24T05:46:12;11.50;99.90
9658;DHT22;4867;48.112;11.622;2023-03-24T05:48:40;11.70;99.90
9658;DHT22;4867;48.112;11.622;2023-03-24T05:51:11;11.70;99.90
9658;DHT22;4867;48.112;11.622;2023-03-24T05:53:38;11.80;99.90
9658;DHT22;4867;48.112;11.622;2023-03-24T05:56:12;11.80;99.90
9658;DHT22;4867;48.112;11.622;2023-03-24T05:58:59;11.90;99.90
9658;DHT22;4867;48.112;11.622;2023-03-24T06:01:49;11.90;99.90
9658;DHT22;4867;48.112;11.622;2023-03-24T06:04:22;11.90;99.90
9658;DHT22;4867;48.112;11.622;2023-03-24T06:06:55;11.90;99.90
9658;DHT22;4867;48.112;11.622;2023-03-24T06:09:30;11.90;99.90
9658;DHT22;4867;48.112;11.622;2023-03-24T06:12:08;12.00;99.90
9658;DHT22;4867;48.112;11.622;2023-03-24T06:14:38;12.00;99.90
9658;DHT22;4867;48.112;11.622;2023-03-24T06:17:12;12.00;99.90
9658;DHT22;4867;48.112;11.622;2023-03-24T06:19:43;12.00;99.90
9658;DHT22;4867;48.112;11.622;2023-03-24T06:22:27;12.00;99.90
9658;DHT22;4867;48.112;11.622;2023-03-24T06:24:55;12.00;99.90
9658;DHT22;4867;48.112;11.622;2023-03-24T06:27:26;12.00;99.90
9658;DHT22;4867;48.112;11.622;2023-03-24T06:29:57;12.00;99.90
9658;DHT22;4867;48.112;11.622;2023-03-24T06:32:25;12.00;99.90
9658;DHT22;4867;48.112;11.622;2023-03-24T06:34:53;12.10;99.90
9658;DHT22;4867;48.112;11.622;2023-03-24T06:37:46;12.20;99.90
9658;DHT22;4867;48.112;11.622;2023-03-24T06:40:14;12.30;99.90
9658;DHT22;4867;48.112;11.622;2023-03-24T06:42:54;12.30;99.90
9658;DHT22;4867;48.112;11.622;2023-03-24T06:45:21;12.30;99.90
9658;DHT22;4867;48.112;11.622;2023-03-24T06:47:53;12.30;99.90
9658;DHT22;4867;48.112;11.622;2023-03-24T06:50:24;12.30;99.90
9658;DHT22;4867;48.112;11.622;2023-03-24T06:52:54;12.40;99.90
9658;DHT22;4867;48.112;11.622;2023-03-24T06:55:26;12.40;99.90
9658;DHT22;4867;48.112;11.622;2023-03-24T06:57:54;12.50;99.90
9658;DHT22;4867;48.112;11.622;2023-03-24T07:00:41;12.50;99.90
9658;DHT22;4867;48.112;11.622;2023-03-24T07:03:38;12.60;99.90
9658;DHT22;4867;48.112;11.622;2023-03-24T07:06:26;12.70;99.90
9658;DHT22;4867;48.112;11.622;2023-03-24T07:09:02;12.70;99.90
9658;DHT22;4867;48.112;11.622;2023-03-24T07:11:31;12.80;99.90
9658;DHT22;4867;48.112;11.622;2023-03-24T07:14:00;12.80;99.90
9658;DHT22;4867;48.112;11.622;2023-03-24T07:16:29;12.80;99.90
9658;DHT22;4867;48.112;11.622;2023-03-24T07:19:13;12.90;99.90
9658;DHT22;4867;48.112;11.622;2023-03-24T07:21:44;12.80;99.90
9658;DHT22;4867;48.112;11.622;2023-03-24T07:24:19;12.80;99.90
9658;DHT22;4867;48.112;11.622;2023-03-24T07:26:58;12.90;99.90
9658;DHT22;4867;48.112;11.622;2023-03-24T07:29:25;12.80;99.90
9658;DHT22;4867;48.112;11.622;2023-03-24T07:32:06;12.80;99.90
9658;DHT22;4867;48.112;11.622;2023-03-24T07:34:34;12.70;99.90
9658;DHT22;4867;48.112;11.622;2023-03-24T07:37:03;12.70;99.90
9658;DHT22;4867;48.112;11.622;2023-03-24T07:39:30;12.50;99.90
9658;DHT22;4867;48.112;11.622;2023-03-24T07:41:58;12.50;99.90
9658;DHT22;4867;48.112;11.622;2023-03-24T07:44:36;12.40;99.90
9658;DHT22;4867;48.112;11.622;2023-03-24T07:47:05;12.40;99.90
9658;DHT22;4867;48.112;11.622;2023-03-24T07:49:32;12.40;99.90
9658;DHT22;4867;48.112;11.622;2023-03-24T07:52:06;12.40;99.90
9658;DHT22;4867;48.112;11.622;2023-03-24T07:54:40;12.40;99.90
9658;DHT22;4867;48.112;11.622;2023-03-24T07:57:08;12.50;99.90
9658;DHT22;4867;48.112;11.622;2023-03-24T07:59:37;12.50;99.90
9658;DHT22;4867;48.112;11.622;2023-03-24T08:02:17;12.50;99.90
9658;DHT22;4867;48.112;11.622;2023-03-24T08:04:51;12.50;99.90
9658;DHT22;4867;48.112;11.622;2023-03-24T08:07:50;12.60;99.90
9658;DHT22;4867;48.112;11.622;2023-03-24T08:10:23;12.60;99.90
9658;DHT22;4867;48.112;11.622;2023-03-24T08:12:51;12.70;99.90
9658;DHT22;4867;48.112;11.622;2023-03-24T08:15:18;12.80;99.90
9658;DHT22;4867;48.112;11.622;2023-03-24T08:17:47;12.80;99.90
9658;DHT22;4867;48.112;11.622;2023-03-24T08:20:16;12.90;99.90
9658;DHT22;4867;48.112;11.622;2023-03-24T08:22:46;13.00;99.90
9658;DHT22;4867;48.112;11.622;2023-03-24T08:25:17;13.30;99.90
9658;DHT22;4867;48.112;11.622;2023-03-24T08:27:45;13.50;99.90
9658;DHT22;4867;48.112;11.622;2023-03-24T08:30:16;13.70;99.90
9658;DHT22;4867;48.112;11.622;2023-03-24T08:32:47;14.00;99.90
9658;DHT22;4867;48.112;11.622;2023-03-24T08:35:17;14.10;99.90
9658;DHT22;4867;48.112;11.622;2023-03-24T08:37:46;14.20;99.90
9658;DHT22;4867;48.112;11.622;2023-03-24T08:40:16;14.30;99.90
9658;DHT22;4867;48.112;11.622;2023-03-24T08:42:50;14.40;99.90
9658;DHT22;4867;48.112;11.622;2023-03-24T08:45:20;14.40;99.90
9658;DHT22;4867;48.112;11.622;2023-03-24T08:47:49;14.50;99.90
9658;DHT22;4867;48.112;11.622;2023-03-24T08:50:23;14.40;99.90
9658;DHT22;4867;48.112;11.622;2023-03-24T08:52:51;14.50;99.90
9658;DHT22;4867;48.112;11.622;2023-03-24T08:55:22;14.50;99.90
9658;DHT22;4867;48.112;11.622;2023-03-24T08:57:49;14.50;99.90
9658;DHT22;4867;48.112;11.622;2023-03-24T09:00:18;14.40;99.90
9658;DHT22;4867;48.112;11.622;2023-03-24T09:02:50;14.40;99.90
9658;DHT22;4867;48.112;11.622;2023-03-24T09:05:20;14.40;99.90
9658;DHT22;4867;48.112;11.622;2023-03-24T09:08:07;14.30;99.90
9658;DHT22;4867;48.112;11.622;2023-03-24T09:10:34;14.30;99.90
9658;DHT22;4867;48.112;11.622;2023-03-24T09:13:01;14.20;99.90
9658;DHT22;4867;48.112;11.622;2023-03-24T09:15:31;14.20;99.90
9658;DHT22;4867;48.112;11.622;2023-03-24T09:17:58;14.20;99.90
9658;DHT22;4867;48.112;11.622;2023-03-24T09:20:26;14.20;99.90
9658;DHT22;4867;48.112;11.622;2023-03-24T09:22:53;14.40;99.90
9658;DHT22;4867;48.112;11.622;2023-03-24T09:25:22;14.40;99.90
9658;DHT22;4867;48.112;11.622;2023-03-24T09:27:49;14.40;99.90
9658;DHT22;4867;48.112;11.622;2023-03-24T09:30:17;14.40;99.90
9658;DHT22;4867;48.112;11.622;2023-03-24T09:32:44;14.40;99.90
9658;DHT22;4867;48.112;11.622;2023-03-24T09:35:12;14.30;99.90
9658;DHT22;4867;48.112;11.622;2023-03-24T09:37:40;14.30;99.90
9658;DHT22;4867;48.112;11.622;2023-03-24T09:40:29;14.10;99.90
9658;DHT22;4867;48.112;11.622;2023-03-24T09:43:04;14.20;99.90
9658;DHT22;4867;48.112;11.622;2023-03-24T09:45:43;14.10;99.90
9658;DHT22;4867;48.112;11.622;2023-03-24T09:49:07;14.00;99.90
9658;DHT22;4867;48.112;11.622;2023-03-24T09:54:25;13.80;99.90
9658;DHT22;4867;48.112;11.622;2023-03-24T09:56:54;13.80;99.90
9658;DHT22;4867;48.112;11.622;2023-03-24T09:59:36;13.70;99.90
9658;DHT22;4867;48.112;11.622;2023-03-24T10:02:14;13.70;99.90
9658;DHT22;4867;48.112;11.622;2023-03-24T10:04:42;13.60;99.90
9658;DHT22;4867;48.112;11.622;2023-03-24T10:09:55;13.40;99.90
9658;DHT22;4867;48.112;11.622;2023-03-24T10:12:35;13.40;99.90
9658;DHT22;4867;48.112;11.622;2023-03-24T10:18:22;13.30;99.90
9658;DHT22;4867;48.112;11.622;2023-03-24T10:21:41;13.40;99.90
9658;DHT22;4867;48.112;11.622;2023-03-24T10:23:59;13.50;99.90
9658;DHT22;4867;48.112;11.622;2023-03-24T10:26:41;13.60;99.90
9658;DHT22;4867;48.112;11.622;2023-03-24T10:29:24;13.60;99.90
9658;DHT22;4867;48.112;11.622;2023-03-24T10:32:04;13.50;99.90
9658;DHT22;4867;48.112;11.622;2023-03-24T10:34:32;13.60;99.90
9658;DHT22;4867;48.112;11.622;2023-03-24T10:37:02;13.50;99.90
9658;DHT22;4867;48.112;11.622;2023-03-24T10:39:30;13.40;99.90
9658;DHT22;4867;48.112;11.622;2023-03-24T10:42:15;13.40;99.90
9658;DHT22;4867;48.112;11.622;2023-03-24T10:44:48;13.40;99.90
9658;DHT22;4867;48.112;11.622;2023-03-24T10:47:24;13.40;99.90
9658;DHT22;4867;48.112;11.622;2023-03-24T10:49:56;13.30;99.90
9658;DHT22;4867;48.112;11.622;2023-03-24T10:52:23;13.50;99.90
9658;DHT22;4867;48.112;11.622;2023-03-24T10:54:56;13.60;99.90
9658;DHT22;4867;48.112;11.622;2023-03-24T10:57:25;13.70;99.90
9658;DHT22;4867;48.112;11.622;2023-03-24T11:00:08;13.80;99.90
9658;DHT22;4867;48.112;11.622;2023-03-24T11:02:40;13.80;99.90
9658;DHT22;4867;48.112;11.622;2023-03-24T11:05:18;13.70;99.90
9658;DHT22;4867;48.112;11.622;2023-03-24T11:07:48;13.60;99.90
9658;DHT22;4867;48.112;11.622;2023-03-24T11:10:18;13.50;99.90
9658;DHT22;4867;48.112;11.622;2023-03-24T11:15:23;13.50;99.90
9658;DHT22;4867;48.112;11.622;2023-03-24T11:20:42;13.40;99.90
9658;DHT22;4867;48.112;11.622;2023-03-24T11:23:13;13.30;99.90
9658;DHT22;4867;48.112;11.622;2023-03-24T11:25:46;13.20;99.90
9658;DHT22;4867;48.112;11.622;2023-03-24T11:28:19;13.30;99.90
9658;DHT22;4867;48.112;11.622;2023-03-24T11:30:49;13.20;99.90
9658;DHT22;4867;48.112;11.622;2023-03-24T11:33:29;13.10;99.90
9658;DHT22;4867;48.112;11.622;2023-03-24T11:39:02;13.00;99.90
9658;DHT22;4867;48.112;11.622;2023-03-24T11:41:30;13.00;99.90
9658;DHT22;4867;48.112;11.622;2023-03-24T11:44:19;13.10;99.90
9658;DHT22;4867;48.112;11.622;2023-03-24T11:46:51;13.20;99.90
9658;DHT22;4867;48.112;11.622;2023-03-24T11:49:23;13.30;99.90
9658;DHT22;4867;48.112;11.622;2023-03-24T11:51:53;13.60;99.90
9658;DHT22;4867;48.112;11.622;2023-03-24T11:54:28;13.80;99.90
9658;DHT22;4867;48.112;11.622;2023-03-24T11:57:03;14.00;99.90
9658;DHT22;4867;48.112;11.622;2023-03-24T11:59:48;14.20;99.90
9658;DHT22;4867;48.112;11.622;2023-03-24T12:02:36;14.30;99.90
9658;DHT22;4867;48.112;11.622;2023-03-24T12:05:40;14.50;99.90
9658;DHT22;4867;48.112;11.622;2023-03-24T12:08:32;14.80;99.90
9658;DHT22;4867;48.112;11.622;2023-03-24T12:11:16;15.00;99.90
9658;DHT22;4867;48.112;11.622;2023-03-24T12:13:48;15.30;99.90
9658;DHT22;4867;48.112;11.622;2023-03-24T12:16:36;15.60;99.90
9658;DHT22;4867;48.112;11.622;2023-03-24T12:19:16;15.70;99.90
9658;DHT22;4867;48.112;11.622;2023-03-24T12:24:51;15.90;99.90
9658;DHT22;4867;48.112;11.622;2023-03-24T12:30:25;16.10;99.90
9658;DHT22;4867;48.112;11.622;2023-03-24T12:36:17;16.30;99.90
9658;DHT22;4867;48.112;11.622;2023-03-24T12:41:47;16.30;99.90
9658;DHT22;4867;48.112;11.622;2023-03-24T12:52:47;15.80;99.90
9658;DHT22;4867;48.112;11.622;2023-03-24T12:58:10;15.70;99.90
9658;DHT22;4867;48.112;11.622;2023-03-24T13:01:00;15.60;99.90
9658;DHT22;4867;48.112;11.622;2023-03-24T13:03:40;15.70;99.90
9658;DHT22;4867;48.112;11.622;2023-03-24T13:06:18;15.70;99.90
9658;DHT22;4867;48.112;11.622;2023-03-24T13:11:33;15.80;99.90
9658;DHT22;4867;48.112;11.622;2023-03-24T13:14:04;15.90;99.90
9658;DHT22;4867;48.112;11.622;2023-03-24T13:16:35;16.00;99.90
9658;DHT22;4867;48.112;11.622;2023-03-24T13:19:13;16.00;99.90
9658;DHT22;4867;48.112;11.622;2023-03-24T13:21:43;16.00;99.90
9658;DHT22;4867;48.112;11.622;2023-03-24T13:24:12;15.90;99.90
9658;DHT22;4867;48.112;11.622;2023-03-24T13:27:07;15.70;99.90
9658;DHT22;4867;48.112;11.622;2023-03-24T13:37:52;15.30;99.90
9658;DHT22;4867;48.112;11.622;2023-03-24T13:40:31;15.20;99.90
9658;DHT22;4867;48.112;11.622;2023-03-24T13:43:11;15.10;99.90
9658;DHT22;4867;48.112;11.622;2023-03-24T13:45:43;14.90;99.90
9658;DHT22;4867;48.112;11.622;2023-03-24T13:48:36;14.80;99.90
9658;DHT22;4867;48.112;11.622;2023-03-24T13:51:30;14.70;99.90
9658;DHT22;4867;48.112;11.622;2023-03-24T13:54:03;14.60;99.90
9658;DHT22;4867;48.112;11.622;2023-03-24T13:57:26;14.50;99.90
9658;DHT22;4867;48.112;11.622;2023-03-24T13:59:40;14.30;99.90
9658;DHT22;4867;48.112;11.622;2023-03-24T14:04:47;14.10;99.90
9658;DHT22;4867;48.112;11.622;2023-03-24T14:10:28;14.00;99.90
9658;DHT22;4867;48.112;11.622;2023-03-24T14:13:04;13.90;99.90
9658;DHT22;4867;48.112;11.622;2023-03-24T14:15:51;13.80;99.90
9658;DHT22;4867;48.112;11.622;2023-03-24T14:23:36;13.70;99.90
9658;DHT22;4867;48.112;11.622;2023-03-24T14:26:15;13.60;99.90
9658;DHT22;4867;48.112;11.622;2023-03-24T14:28:56;13.70;99.90
9658;DHT22;4867;48.112;11.622;2023-03-24T14:31:31;13.80;99.90
9658;DHT22;4867;48.112;11.622;2023-03-24T14:36:42;13.70;99.90
9658;DHT22;4867;48.112;11.622;2023-03-24T14:41:54;13.60;99.90
9658;DHT22;4867;48.112;11.622;2023-03-24T14:47:36;13.60;99.90
9658;DHT22;4867;48.112;11.622;2023-03-24T14:50:20;13.70;99.90
9658;DHT22;4867;48.112;11.622;2023-03-24T14:52:52;13.70;99.90
9658;DHT22;4867;48.112;11.622;2023-03-24T14:55:20;13.70;99.90
9658;DHT22;4867;48.112;11.622;2023-03-24T14:57:53;13.60;99.90
9658;DHT22;4867;48.112;11.622;2023-03-24T15:00:39;13.60;99.90
9658;DHT22;4867;48.112;11.622;2023-03-24T15:03:30;13.60;99.90
9658;DHT22;4867;48.112;11.622;2023-03-24T15:06:13;13.50;99.90
9658;DHT22;4867;48.112;11.622;2023-03-24T15:08:51;13.50;99.90
9658;DHT22;4867;48.112;11.622;2023-03-24T15:11:25;13.60;99.90
9658;DHT22;4867;48.112;11.622;2023-03-24T15:13:54;13.50;99.90
9658;DHT22;4867;48.112;11.622;2023-03-24T15:16:49;13.40;99.90
9658;DHT22;4867;48.112;11.622;2023-03-24T15:19:20;13.50;99.90
9658;DHT22;4867;48.112;11.622;2023-03-24T15:22:10;13.50;99.90
9658;DHT22;4867;48.112;11.622;2023-03-24T15:24:36;13.50;99.90
9658;DHT22;4867;48.112;11.622;2023-03-24T15:29:42;13.50;99.90
9658;DHT22;4867;48.112;11.622;2023-03-24T15:32:17;13.30;99.90
9658;DHT22;4867;48.112;11.622;2023-03-24T15:34:53;13.30;99.90
9658;DHT22;4867;48.112;11.622;2023-03-24T15:37:23;13.10;99.90
9658;DHT22;4867;48.112;11.622;2023-03-24T15:39:53;13.10;99.90
9658;DHT22;4867;48.112;11.622;2023-03-24T15:42:31;13.00;99.90
9658;DHT22;4867;48.112;11.622;2023-03-24T15:45:22;13.00;99.90
9658;DHT22;4867;48.112;11.622;2023-03-24T15:47:52;12.90;99.90
9658;DHT22;4867;48.112;11.622;2023-03-24T15:53:06;12.90;99.90
9658;DHT22;4867;48.112;11.622;2023-03-24T15:55:35;12.90;99.90
9658;DHT22;4867;48.112;11.622;2023-03-24T15:58:23;12.80;99.90
9658;DHT22;4867;48.112;11.622;2023-03-24T16:00:53;12.70;99.90
9658;DHT22;4867;48.112;11.622;2023-03-24T16:03:23;12.70;99.90
9658;DHT22;4867;48.112;11.622;2023-03-24T16:05:55;12.70;99.90
9658;DHT22;4867;48.112;11.622;2023-03-24T16:08:33;12.60;99.90
9658;DHT22;4867;48.112;11.622;2023-03-24T16:11:06;12.50;99.90
9658;DHT22;4867;48.112;11.622;2023-03-24T16:13:38;12.40;99.90
9658;DHT22;4867;48.112;11.622;2023-03-24T16:18:45;12.20;99.90
9658;DHT22;4867;48.112;11.622;2023-03-24T16:21:27;12.10;99.90
9658;DHT22;4867;48.112;11.622;2023-03-24T16:23:56;12.10;99.90
9658;DHT22;4867;48.112;11.622;2023-03-24T16:26:29;11.90;99.90
9658;DHT22;4867;48.112;11.622;2023-03-24T16:29:20;11.70;99.90
9658;DHT22;4867;48.112;11.622;2023-03-24T16:31:50;11.60;99.90
9658;DHT22;4867;48.112;11.622;2023-03-24T16:34:19;11.50;99.90
9658;DHT22;4867;48.112;11.622;2023-03-24T16:36:48;11.40;99.90
9658;DHT22;4867;48.112;11.622;2023-03-24T16:39:18;11.30;99.90
9658;DHT22;4867;48.112;11.622;2023-03-24T16:41:46;11.30;99.90
9658;DHT22;4867;48.112;11.622;2023-03-24T16:44:13;11.20;99.90
9658;DHT22;4867;48.112;11.622;2023-03-24T16:46:44;11.20;99.90
9658;DHT22;4867;48.112;11.622;2023-03-24T16:49:15;11.20;99.90
9658;DHT22;4867;48.112;11.622;2023-03-24T16:51:43;11.20;99.90
9658;DHT22;4867;48.112;11.622;2023-03-24T16:54:11;11.20;99.90
9658;DHT22;4867;48.112;11.622;2023-03-24T16:56:39;11.20;99.90
9658;DHT22;4867;48.112;11.622;2023-03-24T16:59:06;11.20;99.90
9658;DHT22;4867;48.112;11.622;2023-03-24T17:01:36;11.20;99.90
9658;DHT22;4867;48.112;11.622;2023-03-24T17:04:18;11.20;99.90
9658;DHT22;4867;48.112;11.622;2023-03-24T17:06:48;11.10;99.90
9658;DHT22;4867;48.112;11.622;2023-03-24T17:09:16;11.10;99.90
9658;DHT22;4867;48.112;11.622;2023-03-24T17:11:48;11.00;99.90
9658;DHT22;4867;48.112;11.622;2023-03-24T17:14:16;10.90;99.90
9658;DHT22;4867;48.112;11.622;2023-03-24T17:16:45;10.90;99.90
9658;DHT22;4867;48.112;11.622;2023-03-24T17:19:16;10.80;99.90
9658;DHT22;4867;48.112;11.622;2023-03-24T17:21:59;10.80;99.90
9658;DHT22;4867;48.112;11.622;2023-03-24T17:24:31;10.80;99.90
9658;DHT22;4867;48.112;11.622;2023-03-24T17:27:01;10.80;99.90
9658;DHT22;4867;48.112;11.622;2023-03-24T17:32:39;10.70;99.90
9658;DHT22;4867;48.112;11.622;2023-03-24T17:35:10;10.70;99.90
9658;DHT22;4867;48.112;11.622;2023-03-24T17:37:38;10.60;99.90
9658;DHT22;4867;48.112;11.622;2023-03-24T17:40:06;10.70;99.90
9658;DHT22;4867;48.112;11.622;2023-03-24T17:42:39;10.60;99.90
9658;DHT22;4867;48.112;11.622;2023-03-24T17:45:08;10.60;99.90
9658;DHT22;4867;48.112;11.622;2023-03-24T17:47:37;10.60;99.90
9658;DHT22;4867;48.112;11.622;2023-03-24T17:50:06;10.50;99.90
9658;DHT22;4867;48.112;11.622;2023-03-24T17:52:43;10.60;99.90
9658;DHT22;4867;48.112;11.622;2023-03-24T17:55:12;10.50;99.90
9658;DHT22;4867;48.112;11.622;2023-03-24T17:57:41;10.50;99.90
9658;DHT22;4867;48.112;11.622;2023-03-24T18:00:10;10.50;99.90
9658;DHT22;4867;48.112;11.622;2023-03-24T18:02:38;10.50;99.90
9658;DHT22;4867;48.112;11.622;2023-03-24T18:05:07;10.50;99.90
9658;DHT22;4867;48.112;11.622;2023-03-24T18:07:35;10.50;99.90
9658;DHT22;4867;48.112;11.622;2023-03-24T18:10:03;10.50;99.90
9658;DHT22;4867;48.112;11.622;2023-03-24T18:12:30;10.50;99.90
9658;DHT22;4867;48.112;11.622;2023-03-24T18:14:57;10.50;99.90
9658;DHT22;4867;48.112;11.622;2023-03-24T18:17:24;10.70;99.90
9658;DHT22;4867;48.112;11.622;2023-03-24T18:19:52;10.50;99.90
9658;DHT22;4867;48.112;11.622;2023-03-24T18:22:19;10.60;99.90
9658;DHT22;4867;48.112;11.622;2023-03-24T18:24:46;10.60;99.90
9658;DHT22;4867;48.112;11.622;2023-03-24T18:27:13;10.60;99.90
9658;DHT22;4867;48.112;11.622;2023-03-24T18:29:40;10.60;99.90
9658;DHT22;4867;48.112;11.622;2023-03-24T18:32:08;10.60;99.90
9658;DHT22;4867;48.112;11.622;2023-03-24T18:34:35;10.60;99.90
9658;DHT22;4867;48.112;11.622;2023-03-24T18:37:04;10.60;99.90
9658;DHT22;4867;48.112;11.622;2023-03-24T18:39:34;10.50;99.90
9658;DHT22;4867;48.112;11.622;2023-03-24T18:42:01;10.60;99.90